createdAt,value
2022-10-04T00:03:23.721Z,97.34
2022-10-04T00:07:26.833Z,97.04
2022-10-04T00:11:30.095Z,97.49
2022-10-04T00:15:37.314Z,97.62
2022-10-04T00:19:55.402Z,97.62
2022-10-04T00:24:09.280Z,97.79
2022-10-04T00:28:26.015Z,97.32
2022-10-04T00:32:35.452Z,97.24
2022-10-04T00:36:45.995Z,97.46
2022-10-04T00:40:55.281Z,97.27
2022-10-04T00:45:02.835Z,97.59
2022-10-04T00:49:06.865Z,97.69
2022-10-04T00:53:26.379Z,97.47
2022-10-04T00:57:44.801Z,97.22
2022-10-04T01:01:48.350Z,97.38
2022-10-04T01:05:53.156Z,97.79
2022-10-04T01:10:06.172Z,97.50
2022-10-04T01:14:07.431Z,98.01
2022-10-04T01:18:21.152Z,97.85
2022-10-04T01:22:31.982Z,97.53
2022-10-04T01:26:38.522Z,97.60
2022-10-04T01:30:39.899Z,97.96
2022-10-04T01:34:41.584Z,98.11
2022-10-04T01:38:42.939Z,97.94
2022-10-04T01:42:47.572Z,97.91
2022-10-04T01:46:49.611Z,97.82
2022-10-04T01:50:58.425Z,98.11
2022-10-04T01:55:09.214Z,97.33
2022-10-04T01:59:16.093Z,97.31
2022-10-04T02:03:20.953Z,97.80
2022-10-04T02:07:23.088Z,98.16
2022-10-04T02:11:28.485Z,98.29
2022-10-04T02:15:37.380Z,98.13
2022-10-04T02:19:42.274Z,98.40
2022-10-04T02:23:44.353Z,98.21
2022-10-04T02:27:45.814Z,98.40
2022-10-04T02:32:14.253Z,97.97
2022-10-04T02:36:22.232Z,98.74
2022-10-04T02:40:27.010Z,97.89
2022-10-04T02:44:30.464Z,98.01
2022-10-04T02:48:44.236Z,98.39
2022-10-04T02:52:48.361Z,98.29
2022-10-04T02:56:53.332Z,98.33
2022-10-04T03:00:59.410Z,97.97
2022-10-04T03:05:05.612Z,97.93
2022-10-04T03:09:07.085Z,98.21
2022-10-04T03:13:09.298Z,98.13
2022-10-04T03:17:11.917Z,98.22
2022-10-04T03:21:15.561Z,97.70
2022-10-04T03:25:29.148Z,98.36
2022-10-04T03:29:38.261Z,98.44
2022-10-04T03:33:40.157Z,98.63
2022-10-04T03:37:41.625Z,98.44
2022-10-04T03:41:43.150Z,98.65
2022-10-04T03:45:44.956Z,98.44
2022-10-04T03:49:50.848Z,98.21
2022-10-04T03:53:54.401Z,98.44
2022-10-04T03:57:57.328Z,98.17
2022-10-04T04:02:24.683Z,98.41
2022-10-04T04:06:27.680Z,98.49
2022-10-04T04:10:40.252Z,98.86
2022-10-04T04:14:48.635Z,98.51
2022-10-04T04:18:50.302Z,98.42
2022-10-04T04:23:05.469Z,98.65
2022-10-04T04:27:07.757Z,98.72
2022-10-04T04:31:15.643Z,98.57
2022-10-04T04:35:33.464Z,98.54
2022-10-04T04:39:34.776Z,98.89
2022-10-04T04:43:36.161Z,99.14
2022-10-04T04:47:40.597Z,99.54
2022-10-04T04:51:53.346Z,98.95
2022-10-04T04:56:03.967Z,98.83
2022-10-04T05:00:06.419Z,98.65
2022-10-04T05:04:13.870Z,98.95
2022-10-04T05:08:15.158Z,98.88
2022-10-04T05:12:18.957Z,98.97
2022-10-04T05:16:20.856Z,98.73
2022-10-04T05:20:22.440Z,99.11
2022-10-04T05:24:26.086Z,98.88
2022-10-04T05:28:27.654Z,98.56
2022-10-04T05:32:47.932Z,98.60
2022-10-04T05:37:16.902Z,98.79
2022-10-04T05:41:33.279Z,98.34
2022-10-04T05:45:34.965Z,98.71
2022-10-04T05:49:55.599Z,98.39
2022-10-04T05:54:01.209Z,98.56
2022-10-04T05:58:38.916Z,98.79
2022-10-04T06:02:40.290Z,99.22
2022-10-04T06:06:44.605Z,99.53
2022-10-04T06:10:57.313Z,98.89
2022-10-04T06:15:05.813Z,99.30
2022-10-04T06:19:19.106Z,99.94
2022-10-04T06:23:21.396Z,100.00
2022-10-04T06:27:31.184Z,99.59
2022-10-04T06:31:40.228Z,99.38
2022-10-04T06:36:06.316Z,98.82
2022-10-04T06:40:16.919Z,98.91
2022-10-04T06:44:28.593Z,98.59
2022-10-04T06:48:48.515Z,98.85
2022-10-04T06:53:15.856Z,98.81
2022-10-04T06:57:33.326Z,98.73
2022-10-04T07:01:36.179Z,98.67
2022-10-04T07:05:40.520Z,98.45
2022-10-04T07:09:50.392Z,97.92
2022-10-04T07:13:58.503Z,96.27
2022-10-04T07:18:05.933Z,94.58
2022-10-04T07:22:07.324Z,93.52
2022-10-04T07:26:23.412Z,92.84
2022-10-04T07:30:24.706Z,91.50
2022-10-04T07:34:28.836Z,90.38
2022-10-04T07:38:32.137Z,90.49
2022-10-04T07:43:06.345Z,89.38
2022-10-04T07:47:10.840Z,87.94
2022-10-04T07:51:24.382Z,87.08
2022-10-04T07:55:35.354Z,86.03
2022-10-04T07:59:57.797Z,84.63
2022-10-04T08:04:04.375Z,84.46
2022-10-04T08:08:25.678Z,84.46
2022-10-04T08:12:31.576Z,83.84
2022-10-04T08:16:37.080Z,82.67
2022-10-04T08:20:41.470Z,82.27
2022-10-04T08:24:55.159Z,81.85
2022-10-04T08:29:17.953Z,81.51
2022-10-04T08:33:38.077Z,79.77
2022-10-04T08:38:04.450Z,77.71
2022-10-04T08:42:21.373Z,75.47
2022-10-04T08:46:32.085Z,74.30
2022-10-04T08:50:39.661Z,74.74
2022-10-04T08:54:57.292Z,71.70
2022-10-04T08:59:24.562Z,71.91
2022-10-04T09:03:51.437Z,71.71
2022-10-04T09:08:04.125Z,69.77
2022-10-04T09:12:12.074Z,68.57
2022-10-04T09:16:17.192Z,70.06
2022-10-04T09:20:37.777Z,70.70
2022-10-04T09:24:58.419Z,69.09
2022-10-04T09:29:15.416Z,68.60
2022-10-04T09:33:32.070Z,67.89
2022-10-04T09:37:36.329Z,67.73
2022-10-04T09:41:53.496Z,67.67
2022-10-04T09:46:16.293Z,68.85
2022-10-04T09:50:26.771Z,69.16
2022-10-04T09:54:28.954Z,68.08
2022-10-04T09:58:57.437Z,67.92
2022-10-04T10:03:16.239Z,68.30
2022-10-04T10:07:35.394Z,67.86
2022-10-04T10:12:01.412Z,66.80
2022-10-04T10:16:19.149Z,66.73
2022-10-04T10:20:38.895Z,67.06
2022-10-04T10:24:46.527Z,65.21
2022-10-04T10:29:06.568Z,66.29
2022-10-04T10:33:20.364Z,65.48
2022-10-04T10:37:40.948Z,65.38
2022-10-04T10:42:00.704Z,65.65
2022-10-04T10:46:32.481Z,65.92
2022-10-04T10:50:58.430Z,64.45
2022-10-04T10:55:11.908Z,63.68
2022-10-04T10:59:36.026Z,62.82
2022-10-04T11:03:52.784Z,62.75
2022-10-04T11:07:57.288Z,63.46
2022-10-04T11:12:07.866Z,64.28
2022-10-04T11:16:27.412Z,62.49
2022-10-04T11:20:49.603Z,62.51
2022-10-04T11:25:09.633Z,63.06
2022-10-04T11:29:20.446Z,63.42
2022-10-04T11:33:25.589Z,63.30
2022-10-04T11:37:36.120Z,62.74
2022-10-04T11:41:54.081Z,63.23
2022-10-04T11:46:01.683Z,62.75
2022-10-04T11:50:02.928Z,61.66
2022-10-04T11:54:18.740Z,61.32
2022-10-04T11:58:23.277Z,60.78
2022-10-04T12:02:28.371Z,60.40
2022-10-04T12:06:38.991Z,59.43
2022-10-04T12:10:42.068Z,58.18
2022-10-04T12:14:57.133Z,58.59
2022-10-04T12:19:15.818Z,59.75
2022-10-04T12:23:42.791Z,60.30
2022-10-04T12:28:11.880Z,58.60
2022-10-04T12:32:33.512Z,57.65
2022-10-04T12:36:44.333Z,58.40
2022-10-04T12:41:03.517Z,57.53
2022-10-04T12:45:26.652Z,58.42
2022-10-04T12:49:28.228Z,58.80
2022-10-04T12:53:34.581Z,57.99
2022-10-04T12:57:56.537Z,57.65
2022-10-04T13:02:21.013Z,58.17
2022-10-04T13:06:28.020Z,56.65
2022-10-04T13:10:38.531Z,56.99
2022-10-04T13:14:45.800Z,58.19
2022-10-04T13:18:53.375Z,58.54
2022-10-04T13:23:00.925Z,56.89
2022-10-04T13:27:05.383Z,57.20
2022-10-04T13:31:15.600Z,53.86
2022-10-04T13:35:36.545Z,55.50
2022-10-04T13:39:57.196Z,54.53
2022-10-04T13:44:22.904Z,53.41
2022-10-04T13:48:29.459Z,52.63
2022-10-04T13:53:08.566Z,50.62
2022-10-04T13:57:20.411Z,52.82
2022-10-04T14:01:32.906Z,53.81
2022-10-04T14:05:48.862Z,52.99
2022-10-04T14:09:51.072Z,53.91
2022-10-04T14:14:17.667Z,55.83
2022-10-04T14:18:27.099Z,56.42
2022-10-04T14:22:46.958Z,56.81
2022-10-04T14:27:07.335Z,55.86
2022-10-04T14:31:30.251Z,55.44
2022-10-04T14:35:34.825Z,57.84
2022-10-04T14:39:54.407Z,57.15
2022-10-04T14:44:34.281Z,55.11
2022-10-04T14:48:50.617Z,54.14
2022-10-04T14:53:04.377Z,53.61
2022-10-04T14:57:12.503Z,55.16
2022-10-04T15:01:19.432Z,54.40
2022-10-04T15:05:36.189Z,55.63
2022-10-04T15:09:48.308Z,57.34
2022-10-04T15:13:58.519Z,57.39
2022-10-04T15:18:09.577Z,57.89
2022-10-04T15:22:21.671Z,58.12
2022-10-04T15:26:22.944Z,56.72
2022-10-04T15:30:30.767Z,59.26
2022-10-04T15:34:38.795Z,54.45
2022-10-04T15:38:40.009Z,54.84
2022-10-04T15:43:05.598Z,56.08
2022-10-04T15:47:07.238Z,59.18
2022-10-04T15:51:27.577Z,58.55
2022-10-04T15:55:34.864Z,56.67
2022-10-04T15:59:55.484Z,53.64
2022-10-04T16:04:22.620Z,58.92
2022-10-04T16:08:42.819Z,62.44
2022-10-04T16:12:47.361Z,66.48
2022-10-04T16:16:57.587Z,69.13
2022-10-04T16:21:17.687Z,71.83
2022-10-04T16:25:25.572Z,73.24
2022-10-04T16:30:07.991Z,74.40
2022-10-04T16:34:14.519Z,75.53
2022-10-04T16:38:26.729Z,77.39
2022-10-04T16:42:31.176Z,78.22
2022-10-04T16:46:43.165Z,79.56
2022-10-04T16:51:06.652Z,80.39
2022-10-04T16:55:21.718Z,81.53
2022-10-04T16:59:38.509Z,82.46
2022-10-04T17:03:49.552Z,82.88
2022-10-04T17:08:04.696Z,83.53
2022-10-04T17:12:24.918Z,84.10
2022-10-04T17:16:44.987Z,84.86
2022-10-04T17:20:58.055Z,84.94
2022-10-04T17:24:59.363Z,85.93
2022-10-04T17:29:16.664Z,85.87
2022-10-04T17:33:33.685Z,86.56
2022-10-04T17:37:44.684Z,86.74
2022-10-04T17:42:04.884Z,87.33
2022-10-04T17:46:14.777Z,87.55
2022-10-04T17:50:37.750Z,88.51
2022-10-04T17:55:01.132Z,88.64
2022-10-04T17:59:07.093Z,89.11
2022-10-04T18:03:33.252Z,89.42
2022-10-04T18:07:47.689Z,89.78
2022-10-04T18:11:57.189Z,89.67
2022-10-04T18:16:01.943Z,90.30
2022-10-04T18:20:27.050Z,90.61
2022-10-04T18:24:30.356Z,90.66
2022-10-04T18:28:34.881Z,90.69
2022-10-04T18:32:36.750Z,90.69
2022-10-04T18:37:05.165Z,91.23
2022-10-04T18:41:17.776Z,91.36
2022-10-04T18:45:28.420Z,91.59
2022-10-04T18:49:37.757Z,91.64
2022-10-04T18:53:44.370Z,91.79
2022-10-04T18:58:06.349Z,91.76
2022-10-04T19:02:34.881Z,91.75
2022-10-04T19:06:37.479Z,91.83
2022-10-04T19:10:38.749Z,92.20
2022-10-04T19:14:49.715Z,92.75
2022-10-04T19:19:18.849Z,92.98
2022-10-04T19:23:34.701Z,92.99
2022-10-04T19:27:43.713Z,93.42
2022-10-04T19:31:50.842Z,93.30
2022-10-04T19:35:55.241Z,93.74
2022-10-04T19:39:59.524Z,93.43
2022-10-04T19:44:07.017Z,93.10
2022-10-04T19:48:26.795Z,93.44
2022-10-04T19:52:35.933Z,93.39
2022-10-04T19:56:49.815Z,93.30
2022-10-04T20:00:57.872Z,94.04
2022-10-04T20:04:59.304Z,94.68
2022-10-04T20:09:19.414Z,94.55
2022-10-04T20:13:23.769Z,94.60
2022-10-04T20:17:39.807Z,94.72
2022-10-04T20:21:41.354Z,94.84
2022-10-04T20:25:51.853Z,94.36
2022-10-04T20:29:53.204Z,94.74
2022-10-04T20:33:54.664Z,94.48
2022-10-04T20:38:30.644Z,95.01
2022-10-04T20:42:26.155Z,95.04
2022-10-04T20:46:38.155Z,94.72
2022-10-04T20:50:42.067Z,94.98
2022-10-04T20:54:53.141Z,95.10
2022-10-04T20:58:55.772Z,94.84
2022-10-04T21:03:13.376Z,95.43
2022-10-04T21:07:18.639Z,96.12
2022-10-04T21:11:21.291Z,96.08
2022-10-04T21:15:22.957Z,95.48
2022-10-04T21:19:33.691Z,95.61
2022-10-04T21:23:41.756Z,95.31
2022-10-04T21:27:43.630Z,95.65
2022-10-04T21:31:51.936Z,96.14
2022-10-04T21:35:53.256Z,95.98
2022-10-04T21:39:54.862Z,96.09
2022-10-04T21:43:56.320Z,96.55
2022-10-04T21:47:57.610Z,96.45
2022-10-04T21:52:05.844Z,96.23
2022-10-04T21:56:07.621Z,96.45
2022-10-04T22:00:09.484Z,95.99
2022-10-04T22:04:10.833Z,96.72
2022-10-04T22:08:18.848Z,96.25
2022-10-04T22:12:20.165Z,96.81
2022-10-04T22:16:21.695Z,97.17
2022-10-04T22:20:26.433Z,96.59
2022-10-04T22:24:27.717Z,96.91
2022-10-04T22:28:29.903Z,96.66
2022-10-04T22:32:31.961Z,97.29
2022-10-04T22:36:36.171Z,96.74
2022-10-04T22:40:37.469Z,96.48
2022-10-04T22:44:38.884Z,97.03
2022-10-04T22:48:46.860Z,97.10
2022-10-04T22:52:48.100Z,96.28
2022-10-04T22:56:56.661Z,96.28
2022-10-04T23:00:57.997Z,96.01
2022-10-04T23:05:01.808Z,96.20
2022-10-04T23:09:03.252Z,96.55
2022-10-04T23:13:04.745Z,96.41
2022-10-04T23:17:24.394Z,96.41
2022-10-04T23:21:26.205Z,96.16
2022-10-04T23:25:28.869Z,95.57
2022-10-04T23:29:31.675Z,96.10
2022-10-04T23:33:33.036Z,96.31
2022-10-04T23:37:34.285Z,96.29
2022-10-04T23:41:35.539Z,95.88
2022-10-04T23:45:41.777Z,96.22
2022-10-04T23:49:44.136Z,96.04
2022-10-04T23:53:46.460Z,96.12
2022-10-04T23:57:48.088Z,95.80
